Time;durP1;ratioP1;P1;durP2;ratioP2;P2;SDS_P1;SDS_P2;PMS_P1;PMS_P2;Temp;Humidity;BMP_temperature;BMP_pressure;BME280_temperature;BME280_humidity;BME280_pressure;Samples;Min_cycle;Max_cycle;Signal;HPM_P1;HPM_P2
2021/01/17 00:00:35;;;;;;;16.85;8.93;;;-2.70;98.00;;;;;;5078185;28;20028;-64
2021/01/17 00:03:01;;;;;;;12.77;8.15;;;-2.70;98.00;;;;;;5075726;28;20028;-65
2021/01/17 00:05:29;;;;;;;12.60;8.02;;;-2.70;98.00;;;;;;5075732;28;20056;-64
2021/01/17 00:07:55;;;;;;;13.05;7.78;;;-2.70;98.00;;;;;;5074399;28;20039;-65
2021/01/17 00:10:23;;;;;;;12.15;8.43;;;-2.70;98.00;;;;;;5077459;28;20063;-64
2021/01/17 00:12:50;;;;;;;13.32;7.97;;;-2.70;98.00;;;;;;5075654;28;20060;-64
2021/01/17 00:15:16;;;;;;;20.02;9.75;;;-2.60;98.00;;;;;;5077170;28;20033;-65
2021/01/17 00:17:44;;;;;;;25.20;14.50;;;-2.60;98.00;;;;;;5078514;28;20497;-64
2021/01/17 00:20:12;;;;;;;24.38;15.20;;;-2.60;98.00;;;;;;5074806;28;20037;-64
2021/01/17 00:22:38;;;;;;;33.28;20.02;;;-2.70;98.00;;;;;;5074965;28;20033;-64
2021/01/17 00:25:05;;;;;;;38.30;22.20;;;-2.90;98.00;;;;;;5075581;28;20456;-64
2021/01/17 00:27:31;;;;;;;31.98;19.58;;;-3.10;98.00;;;;;;5075057;28;20325;-64
2021/01/17 00:29:57;;;;;;;40.60;21.27;;;-3.30;98.00;;;;;;5075747;28;20047;-65
2021/01/17 00:32:25;;;;;;;31.85;18.35;;;-3.30;98.00;;;;;;5075130;28;20028;-65
2021/01/17 00:34:50;;;;;;;29.33;18.00;;;-3.40;98.00;;;;;;5078877;28;20028;-65
2021/01/17 00:37:17;;;;;;;39.25;18.50;;;-3.40;98.00;;;;;;5084032;28;20035;-63
2021/01/17 00:39:43;;;;;;;38.20;19.02;;;-3.50;98.00;;;;;;5071851;28;20111;-63
2021/01/17 00:42:16;;;;;;;29.20;18.45;;;-3.50;98.00;;;;;;5076845;28;20100;-64
2021/01/17 00:44:46;;;;;;;27.25;18.65;;;-3.70;98.00;;;;;;5077628;28;20029;-64
2021/01/17 00:47:13;;;;;;;30.33;18.65;;;-3.70;98.00;;;;;;5076316;28;20412;-62
2021/01/17 00:49:45;;;;;;;34.35;19.70;;;-3.70;98.00;;;;;;5074026;28;20021;-65
2021/01/17 00:52:18;;;;;;;27.65;18.35;;;-3.80;98.00;;;;;;5079442;28;20031;-64
2021/01/17 00:54:45;;;;;;;30.58;18.85;;;-3.80;98.00;;;;;;5078615;28;20043;-63
2021/01/17 00:57:31;;;;;;;29.50;18.52;;;-3.80;98.00;;;;;;5076488;28;20401;-66
2021/01/17 00:59:56;;;;;;;30.38;19.65;;;-3.80;98.00;;;;;;5072709;28;20024;-64
2021/01/17 01:02:22;;;;;;;31.08;19.35;;;-3.80;98.00;;;;;;5078830;28;20325;-65
2021/01/17 01:04:49;;;;;;;32.72;19.42;;;-3.80;98.00;;;;;;5074737;28;20024;-65
2021/01/17 01:07:15;;;;;;;32.70;20.73;;;-3.80;98.00;;;;;;5078706;28;20025;-65
2021/01/17 01:09:43;;;;;;;31.10;20.45;;;-3.80;98.00;;;;;;5074531;28;20035;-62
2021/01/17 01:12:09;;;;;;;40.58;21.45;;;-3.80;98.00;;;;;;5077942;28;20028;-65
2021/01/17 01:14:35;;;;;;;37.30;21.77;;;-3.80;98.00;;;;;;5074532;28;20055;-65
2021/01/17 01:17:00;;;;;;;37.83;22.45;;;-3.90;98.00;;;;;;5075194;28;20328;-64
2021/01/17 01:19:26;;;;;;;39.60;22.35;;;-3.90;98.00;;;;;;5079654;28;20887;-63
2021/01/17 01:21:51;;;;;;;35.88;21.73;;;-4.00;98.00;;;;;;5078812;28;20475;-64
2021/01/17 01:24:17;;;;;;;33.42;21.50;;;-4.00;98.00;;;;;;5074207;28;20020;-65
2021/01/17 01:26:45;;;;;;;35.13;21.52;;;-4.00;98.00;;;;;;5073063;28;20024;-65
2021/01/17 01:29:13;;;;;;;33.70;20.23;;;-3.90;98.00;;;;;;5077830;28;20483;-65
2021/01/17 01:31:42;;;;;;;34.42;20.42;;;-3.90;98.00;;;;;;5081306;28;20024;-63
2021/01/17 01:34:08;;;;;;;26.92;18.33;;;-3.90;98.00;;;;;;5077076;28;20024;-65
2021/01/17 01:36:36;;;;;;;32.58;20.52;;;-3.90;98.00;;;;;;5074497;28;20039;-64
2021/01/17 01:39:05;;;;;;;32.03;20.42;;;-3.90;98.00;;;;;;5080519;28;20020;-64
2021/01/17 01:41:33;;;;;;;37.63;21.48;;;-4.00;98.00;;;;;;5086762;28;20016;-65
2021/01/17 01:43:59;;;;;;;33.28;20.52;;;-4.00;98.00;;;;;;5077465;28;20023;-65
2021/01/17 01:46:28;;;;;;;32.83;19.90;;;-3.90;98.00;;;;;;5074690;28;20097;-65
2021/01/17 01:48:54;;;;;;;31.55;19.75;;;-3.90;98.00;;;;;;5072990;28;20035;-65
2021/01/17 01:51:23;;;;;;;32.45;20.23;;;-3.90;98.00;;;;;;5074660;28;20573;-65
2021/01/17 01:53:51;;;;;;;35.72;21.00;;;-3.80;98.00;;;;;;5072047;28;20035;-65
2021/01/17 01:56:17;;;;;;;33.30;21.20;;;-3.90;98.00;;;;;;5074035;28;20425;-65
2021/01/17 01:58:43;;;;;;;32.22;20.27;;;-3.80;98.00;;;;;;5079174;28;20055;-65
2021/01/17 02:01:11;;;;;;;37.95;22.23;;;-3.90;98.00;;;;;;5078163;28;20020;-65
2021/01/17 02:03:37;;;;;;;34.05;22.27;;;-3.90;98.00;;;;;;5077650;28;20547;-63
2021/01/17 02:06:11;;;;;;;34.53;21.90;;;-3.90;98.00;;;;;;5074490;28;20028;-64
2021/01/17 02:09:13;;;;;;;34.47;21.45;;;-3.80;98.00;;;;;;5077335;28;20024;-64
2021/01/17 02:11:57;;;;;;;31.50;20.95;;;-3.80;98.00;;;;;;5075122;28;20033;-65
2021/01/17 02:14:23;;;;;;;31.95;20.45;;;-3.80;98.00;;;;;;5073822;28;20032;-62
2021/01/17 02:16:53;;;;;;;32.60;21.10;;;-3.80;98.00;;;;;;5073383;28;20409;-62
2021/01/17 02:19:20;;;;;;;33.65;20.77;;;-3.80;98.00;;;;;;5069399;28;20079;-63
2021/01/17 02:21:56;;;;;;;31.80;19.90;;;-3.80;98.00;;;;;;5076078;28;20065;-64
2021/01/17 02:24:56;;;;;;;32.42;19.98;;;-3.80;98.00;;;;;;5075414;28;20028;-64
2021/01/17 02:27:22;;;;;;;30.00;19.13;;;-3.80;98.00;;;;;;5074501;28;20098;-65
2021/01/17 02:29:50;;;;;;;30.63;19.50;;;-3.70;98.00;;;;;;5073978;28;20362;-65
2021/01/17 02:32:20;;;;;;;28.25;18.67;;;-3.70;98.00;;;;;;5072737;28;20041;-65
2021/01/17 02:34:51;;;;;;;26.92;18.05;;;-3.70;98.00;;;;;;5073389;28;20401;-65
2021/01/17 02:37:48;;;;;;;27.35;17.20;;;-3.60;98.00;;;;;;5069511;28;21587;-65
2021/01/17 02:40:43;;;;;;;30.80;18.48;;;-3.60;98.00;;;;;;5073610;28;20024;-65
2021/01/17 02:43:12;;;;;;;34.95;18.60;;;-3.50;98.00;;;;;;5074571;28;20025;-65
2021/01/17 02:45:38;;;;;;;31.55;18.63;;;-3.50;98.00;;;;;;5076366;28;20048;-64
2021/01/17 02:48:04;;;;;;;28.60;18.42;;;-3.50;98.00;;;;;;5071305;28;20162;-64
2021/01/17 02:50:33;;;;;;;30.45;18.52;;;-3.50;98.00;;;;;;5078457;28;20028;-65
2021/01/17 02:53:28;;;;;;;25.52;17.92;;;-3.40;98.00;;;;;;5069996;28;20028;-64
2021/01/17 02:55:58;;;;;;;29.45;18.30;;;-3.40;98.00;;;;;;5073867;28;20036;-65
2021/01/17 02:58:25;;;;;;;28.95;15.68;;;-3.50;98.00;;;;;;5075612;28;20374;-65
2021/01/17 03:00:55;;;;;;;29.50;16.77;;;-3.50;98.00;;;;;;5074545;28;20038;-64
2021/01/17 03:03:25;;;;;;;24.75;16.58;;;-3.50;98.00;;;;;;5070197;28;20029;-64
2021/01/17 03:05:51;;;;;;;17.70;12.45;;;-3.40;98.00;;;;;;5070533;28;20025;-65
2021/01/17 03:08:17;;;;;;;28.45;16.52;;;-3.30;98.00;;;;;;5073257;28;20170;-64
2021/01/17 03:10:43;;;;;;;28.63;15.55;;;-3.30;98.00;;;;;;5072966;28;20047;-65
2021/01/17 03:13:09;;;;;;;15.30;9.88;;;-3.30;98.00;;;;;;5075781;28;20413;-65
2021/01/17 03:15:39;;;;;;;16.05;10.32;;;-3.10;98.00;;;;;;5070934;28;20130;-65
2021/01/17 03:18:05;;;;;;;24.15;14.40;;;-3.00;98.00;;;;;;5077874;28;20037;-65
2021/01/17 03:20:30;;;;;;;21.60;11.38;;;-3.00;98.00;;;;;;5072978;28;20031;-65
2021/01/17 03:22:59;;;;;;;18.33;12.25;;;-3.00;98.00;;;;;;5070544;28;20118;-65
2021/01/17 03:25:24;;;;;;;19.02;11.68;;;-3.00;98.00;;;;;;5075941;28;20140;-64
2021/01/17 03:27:50;;;;;;;18.95;12.05;;;-3.00;98.00;;;;;;5071691;28;20041;-65
2021/01/17 03:30:16;;;;;;;19.85;11.30;;;-2.90;98.00;;;;;;5074523;28;20492;-64
2021/01/17 03:32:42;;;;;;;19.90;11.35;;;-2.70;98.00;;;;;;5077594;28;20021;-63
2021/01/17 03:35:08;;;;;;;19.77;12.45;;;-2.70;98.00;;;;;;5080719;28;20039;-64
2021/01/17 03:37:34;;;;;;;18.10;11.57;;;-2.70;98.00;;;;;;5077009;28;20027;-65
2021/01/17 03:39:59;;;;;;;17.05;11.02;;;-2.70;98.00;;;;;;5076596;28;20519;-65
2021/01/17 03:42:25;;;;;;;17.27;11.13;;;-2.70;98.00;;;;;;5076445;28;20126;-66
2021/01/17 03:44:50;;;;;;;18.17;11.68;;;-2.60;98.00;;;;;;5077783;28;20039;-65
2021/01/17 03:47:16;;;;;;;18.88;11.07;;;-2.60;98.00;;;;;;5077832;28;20111;-65
2021/01/17 03:49:42;;;;;;;18.17;11.93;;;-2.60;98.00;;;;;;5076931;28;20328;-64
2021/01/17 03:52:08;;;;;;;21.02;11.90;;;-2.60;98.00;;;;;;5080395;28;20024;-64
2021/01/17 03:54:36;;;;;;;21.23;12.45;;;-2.70;98.00;;;;;;5072804;28;20025;-65
2021/01/17 03:57:01;;;;;;;16.88;11.05;;;-2.80;98.00;;;;;;5078571;28;20047;-64
2021/01/17 03:59:27;;;;;;;17.10;11.27;;;-2.70;98.00;;;;;;5078327;28;20120;-65
2021/01/17 04:01:53;;;;;;;17.08;11.57;;;-2.60;98.00;;;;;;5076905;28;20030;-65
2021/01/17 04:04:19;;;;;;;14.73;9.70;;;-2.70;98.00;;;;;;5078277;28;20032;-65
2021/01/17 04:06:44;;;;;;;12.45;8.30;;;-2.60;98.00;;;;;;5078866;28;20028;-65
2021/01/17 04:09:10;;;;;;;20.85;11.80;;;-2.40;98.00;;;;;;5076889;28;20035;-65
2021/01/17 04:11:36;;;;;;;17.08;10.25;;;-2.40;98.00;;;;;;5075178;28;20133;-65
2021/01/17 04:14:04;;;;;;;13.10;8.60;;;-2.50;98.00;;;;;;5073733;28;20499;-65
2021/01/17 04:16:30;;;;;;;12.25;7.72;;;-2.40;98.00;;;;;;5075989;28;20165;-65
2021/01/17 04:18:55;;;;;;;14.93;8.32;;;-2.20;98.00;;;;;;5074941;28;21807;-64
2021/01/17 04:21:24;;;;;;;14.05;8.20;;;-2.10;98.00;;;;;;5073671;28;20024;-64
2021/01/17 04:23:50;;;;;;;13.45;9.02;;;-2.10;98.00;;;;;;5074743;28;20474;-65
2021/01/17 04:26:18;;;;;;;11.43;8.13;;;-2.10;98.00;;;;;;5077560;28;20025;-63
2021/01/17 04:28:44;;;;;;;14.82;9.77;;;-2.10;98.00;;;;;;5075374;28;20085;-65
2021/01/17 04:31:10;;;;;;;14.18;9.20;;;-2.00;98.00;;;;;;5076936;28;20029;-64
2021/01/17 04:33:36;;;;;;;14.48;9.27;;;-1.90;98.00;;;;;;5079231;28;20355;-64
2021/01/17 04:36:02;;;;;;;15.63;8.90;;;-1.90;98.00;;;;;;5076467;28;20037;-65
2021/01/17 04:38:30;;;;;;;19.92;9.95;;;-1.90;98.00;;;;;;5078423;28;21663;-62
2021/01/17 04:41:01;;;;;;;13.40;8.57;;;-1.90;98.00;;;;;;5080017;28;20033;-63
2021/01/17 04:43:30;;;;;;;18.13;10.45;;;-1.90;98.00;;;;;;5078070;28;20451;-63
2021/01/17 04:46:00;;;;;;;15.30;8.85;;;-1.90;98.00;;;;;;5077724;28;20028;-62
2021/01/17 04:48:28;;;;;;;13.35;9.40;;;-1.90;98.00;;;;;;5078603;28;20137;-62
2021/01/17 04:51:02;;;;;;;15.90;9.05;;;-1.90;98.00;;;;;;5076190;28;20032;-64
2021/01/17 04:53:34;;;;;;;14.30;10.15;;;-2.00;98.00;;;;;;5077080;28;20043;-64
2021/01/17 04:56:09;;;;;;;14.52;9.35;;;-1.90;98.00;;;;;;5085248;28;20028;-63
2021/01/17 04:58:38;;;;;;;12.75;8.88;;;-1.90;98.00;;;;;;5076707;28;20070;-63
2021/01/17 05:01:13;;;;;;;15.43;9.32;;;-1.90;98.00;;;;;;5075276;28;20051;-64
2021/01/17 05:04:17;;;;;;;14.95;9.63;;;-1.90;98.00;;;;;;5077284;28;20074;-65
2021/01/17 05:06:48;;;;;;;12.68;8.45;;;-1.90;98.00;;;;;;5077444;28;20028;-62
2021/01/17 05:09:20;;;;;;;11.98;7.53;;;-1.90;98.00;;;;;;5075188;28;20074;-64
2021/01/17 05:11:50;;;;;;;13.15;8.35;;;-1.80;98.00;;;;;;5076994;28;20032;-65
2021/01/17 05:14:22;;;;;;;15.25;8.93;;;-1.80;98.00;;;;;;5078428;28;20082;-63
2021/01/17 05:16:48;;;;;;;14.18;8.68;;;-1.80;98.00;;;;;;5080269;28;20028;-64
2021/01/17 05:19:18;;;;;;;11.88;8.02;;;-1.90;98.00;;;;;;5075855;28;20039;-63
2021/01/17 05:21:54;;;;;;;12.82;8.95;;;-1.80;98.00;;;;;;5079501;28;20039;-64
2021/01/17 05:24:20;;;;;;;14.43;8.90;;;-1.80;98.00;;;;;;5075445;28;20054;-63
2021/01/17 05:27:00;;;;;;;15.45;9.50;;;-1.70;98.00;;;;;;5075230;28;20029;-63
2021/01/17 05:29:29;;;;;;;13.65;8.60;;;-1.70;98.00;;;;;;5078356;28;20028;-65
2021/01/17 05:32:05;;;;;;;16.05;9.73;;;-1.70;98.00;;;;;;5075468;28;20320;-62
2021/01/17 05:34:32;;;;;;;16.55;9.55;;;-1.70;98.00;;;;;;5076290;28;20039;-63
2021/01/17 05:37:04;;;;;;;16.10;10.05;;;-1.70;98.00;;;;;;5076863;28;20633;-64
2021/01/17 05:40:06;;;;;;;17.73;11.07;;;-1.70;98.00;;;;;;5075998;28;20048;-63
2021/01/17 05:42:34;;;;;;;14.00;9.27;;;-1.70;98.00;;;;;;5088012;28;20124;-62
2021/01/17 05:45:16;;;;;;;15.18;9.48;;;-1.70;98.00;;;;;;5080215;28;20090;-63
2021/01/17 05:47:51;;;;;;;17.00;10.60;;;-1.70;98.00;;;;;;5088675;28;20073;-63
2021/01/17 05:50:20;;;;;;;19.52;11.50;;;-1.60;98.00;;;;;;5078115;28;20059;-62
2021/01/17 05:52:57;;;;;;;17.45;10.93;;;-1.70;98.00;;;;;;5081206;28;20037;-63
2021/01/17 05:55:32;;;;;;;16.67;11.40;;;-1.70;98.00;;;;;;5078108;28;20089;-64
2021/01/17 05:58:32;;;;;;;12.98;8.68;;;-1.70;98.00;;;;;;5084340;28;20429;-63
2021/01/17 06:01:13;;;;;;;16.63;9.98;;;-1.60;98.00;;;;;;5076024;28;20051;-65
2021/01/17 06:03:58;;;;;;;17.13;10.80;;;-1.60;98.00;;;;;;5080549;28;20532;-63
2021/01/17 06:06:33;;;;;;;18.65;10.45;;;-1.60;98.00;;;;;;5093428;28;20024;-64
2021/01/17 06:09:00;;;;;;;16.13;10.80;;;-1.60;98.00;;;;;;5084882;28;20031;-63
2021/01/17 06:11:26;;;;;;;15.77;9.90;;;-1.50;98.00;;;;;;5081739;28;20023;-64
2021/01/17 06:13:59;;;;;;;13.88;9.23;;;-1.50;98.00;;;;;;5075092;28;20029;-64
2021/01/17 06:16:36;;;;;;;15.52;8.95;;;-1.50;98.00;;;;;;5089918;28;20060;-62
2021/01/17 06:19:06;;;;;;;12.85;8.55;;;-1.50;98.00;;;;;;5085158;28;20043;-64
2021/01/17 06:21:33;;;;;;;15.60;8.80;;;-1.50;98.00;;;;;;5082150;28;20044;-63
2021/01/17 06:24:09;;;;;;;13.25;8.20;;;-1.60;98.00;;;;;;5077035;28;20317;-62
2021/01/17 06:26:41;;;;;;;14.15;8.52;;;-1.50;98.00;;;;;;5085411;28;20034;-65
2021/01/17 06:29:09;;;;;;;15.50;8.38;;;-1.50;98.00;;;;;;5086448;28;20039;-64
2021/01/17 06:31:34;;;;;;;16.42;7.90;;;-1.60;98.00;;;;;;5082439;28;20313;-65
2021/01/17 06:34:15;;;;;;;11.05;7.10;;;-1.60;98.00;;;;;;5079989;28;20027;-65
2021/01/17 06:36:47;;;;;;;12.60;8.02;;;-1.50;98.00;;;;;;5076762;28;20017;-65
2021/01/17 06:39:26;;;;;;;10.30;6.60;;;-1.50;98.00;;;;;;5076990;28;20086;-65
2021/01/17 06:42:00;;;;;;;10.40;7.88;;;-1.50;98.00;;;;;;5082992;28;20039;-65
2021/01/17 06:44:30;;;;;;;10.32;6.90;;;-1.50;98.00;;;;;;5084076;28;20039;-65
2021/01/17 06:46:59;;;;;;;13.55;7.30;;;-1.50;98.00;;;;;;5084993;28;20067;-65
2021/01/17 06:49:32;;;;;;;11.82;7.13;;;-1.50;98.00;;;;;;5085205;28;20047;-65
2021/01/17 06:52:01;;;;;;;14.00;7.55;;;-1.60;98.00;;;;;;5077685;28;20031;-64
2021/01/17 06:54:37;;;;;;;9.30;5.57;;;-1.60;98.00;;;;;;5077718;28;20028;-65
2021/01/17 06:57:04;;;;;;;8.82;5.50;;;-1.50;98.00;;;;;;5089101;28;20094;-65
2021/01/17 06:59:31;;;;;;;13.43;7.93;;;-1.50;98.00;;;;;;5082381;28;20409;-65
2021/01/17 07:02:28;;;;;;;11.05;7.20;;;-1.50;98.00;;;;;;5079591;28;20028;-64
2021/01/17 07:05:00;;;;;;;11.77;7.45;;;-1.50;98.00;;;;;;5083636;28;20055;-64
2021/01/17 07:07:34;;;;;;;12.70;7.85;;;-1.50;98.00;;;;;;5077763;28;20033;-63
2021/01/17 07:10:02;;;;;;;11.60;8.10;;;-1.50;98.00;;;;;;5081595;28;20044;-65
2021/01/17 07:12:49;;;;;;;14.75;8.50;;;-1.50;98.00;;;;;;5094942;28;20388;-65
2021/01/17 07:15:23;;;;;;;11.98;8.00;;;-1.50;98.00;;;;;;5082272;28;20052;-62
2021/01/17 07:17:55;;;;;;;12.33;9.03;;;-1.40;98.00;;;;;;5080331;28;20362;-65
2021/01/17 07:20:28;;;;;;;15.00;8.95;;;-1.50;98.00;;;;;;5088354;28;20013;-64
2021/01/17 07:22:57;;;;;;;17.70;9.35;;;-1.40;98.00;;;;;;5078326;28;20024;-65
2021/01/17 07:25:24;;;;;;;12.07;7.30;;;-1.40;98.00;;;;;;5077675;28;20067;-62
2021/01/17 07:28:12;;;;;;;13.57;7.90;;;-1.40;98.00;;;;;;5078042;28;20137;-63
2021/01/17 07:31:05;;;;;;;11.70;7.75;;;-1.40;98.00;;;;;;5084595;28;20028;-64
2021/01/17 07:33:36;;;;;;;14.05;9.02;;;-1.40;98.00;;;;;;5081927;28;20035;-64
2021/01/17 07:36:10;;;;;;;12.88;8.65;;;-1.30;98.00;;;;;;5078289;28;20074;-64
2021/01/17 07:38:38;;;;;;;12.80;8.13;;;-1.30;98.00;;;;;;5082801;28;20447;-63
2021/01/17 07:41:11;;;;;;;16.42;9.68;;;-1.30;98.00;;;;;;5091188;28;20042;-65
2021/01/17 07:43:44;;;;;;;13.93;9.00;;;-1.30;98.00;;;;;;5093573;28;20036;-62
2021/01/17 07:46:16;;;;;;;16.85;8.23;;;-1.30;98.00;;;;;;5091983;28;20031;-65
2021/01/17 07:48:43;;;;;;;14.68;7.60;;;-1.20;98.00;;;;;;5095286;28;20026;-63
2021/01/17 07:51:12;;;;;;;14.23;9.57;;;-1.20;98.00;;;;;;5085635;28;20052;-65
2021/01/17 07:53:37;;;;;;;20.60;12.48;;;-1.20;98.00;;;;;;5082604;28;20413;-64
2021/01/17 07:56:13;;;;;;;19.80;11.55;;;-1.20;98.00;;;;;;5091800;28;20039;-64
2021/01/17 07:58:45;;;;;;;12.93;8.20;;;-1.20;98.00;;;;;;5085851;28;20111;-65
2021/01/17 08:01:35;;;;;;;12.00;7.43;;;-1.10;98.00;;;;;;5084849;28;20597;-64
2021/01/17 08:04:04;;;;;;;14.55;9.73;;;-1.00;98.00;;;;;;5081903;28;20091;-63
2021/01/17 08:06:35;;;;;;;16.95;10.18;;;-1.00;98.00;;;;;;5081182;28;20066;-63
2021/01/17 08:09:05;;;;;;;11.95;8.02;;;-0.90;98.00;;;;;;5085928;28;20025;-64
2021/01/17 08:11:44;;;;;;;16.30;10.27;;;-1.00;98.00;;;;;;5077982;28;20310;-63
2021/01/17 08:14:19;;;;;;;17.80;10.48;;;-1.00;98.00;;;;;;5078914;28;20024;-63
2021/01/17 08:17:11;;;;;;;19.38;12.40;;;-1.00;98.00;;;;;;5076633;28;20496;-63
2021/01/17 08:20:00;;;;;;;20.60;12.40;;;-0.90;98.00;;;;;;5082202;28;20040;-63
2021/01/17 08:22:25;;;;;;;21.85;11.68;;;-0.90;98.00;;;;;;5081934;28;20073;-64
2021/01/17 08:24:59;;;;;;;13.52;8.75;;;-0.90;98.00;;;;;;5087209;28;20032;-64
2021/01/17 08:27:32;;;;;;;15.55;10.60;;;-0.90;98.00;;;;;;5094463;28;20085;-65
2021/01/17 08:30:01;;;;;;;14.97;10.93;;;-0.90;98.00;;;;;;5092593;28;20036;-64
2021/01/17 08:32:45;;;;;;;11.38;8.27;;;-0.80;98.00;;;;;;5090908;28;20063;-64
2021/01/17 08:35:10;;;;;;;11.25;7.45;;;-0.70;98.00;;;;;;5081035;28;20432;-65
2021/01/17 08:37:37;;;;;;;12.10;8.18;;;-0.80;98.00;;;;;;5092258;28;20056;-65
2021/01/17 08:40:04;;;;;;;10.85;7.50;;;-0.70;98.00;;;;;;5085388;28;20031;-65
2021/01/17 08:42:34;;;;;;;13.25;8.55;;;-0.70;98.00;;;;;;5076639;28;20420;-65
2021/01/17 08:45:01;;;;;;;15.93;11.52;;;-0.60;98.00;;;;;;5084992;28;20325;-63
2021/01/17 08:47:27;;;;;;;33.03;22.95;;;-0.60;98.00;;;;;;5091308;28;20469;-62
2021/01/17 08:49:53;;;;;;;115.30;58.45;;;-0.60;98.00;;;;;;5081894;28;20112;-63
2021/01/17 08:52:30;;;;;;;108.93;56.65;;;-0.60;98.00;;;;;;5078769;28;20408;-63
2021/01/17 08:54:56;;;;;;;24.27;13.55;;;-0.50;98.00;;;;;;5076037;28;20024;-62
2021/01/17 08:57:44;;;;;;;20.13;12.27;;;-0.50;98.00;;;;;;5082219;28;20024;-64
2021/01/17 09:00:16;;;;;;;14.68;9.10;;;-0.50;98.00;;;;;;5085683;28;20099;-65
2021/01/17 09:02:45;;;;;;;11.27;7.75;;;-0.40;98.00;;;;;;5079710;28;20017;-63
2021/01/17 09:05:18;;;;;;;20.35;13.05;;;-0.30;98.00;;;;;;5077266;28;20047;-64
2021/01/17 09:07:45;;;;;;;17.00;10.70;;;-0.30;98.00;;;;;;5073478;28;20080;-65
2021/01/17 09:10:17;;;;;;;18.98;11.93;;;-0.20;98.00;;;;;;5074942;28;20032;-64
2021/01/17 09:12:44;;;;;;;16.02;10.20;;;-0.20;98.00;;;;;;5077339;28;20024;-62
2021/01/17 09:15:18;;;;;;;13.95;8.38;;;0.00;98.00;;;;;;5073432;28;20079;-63
2021/01/17 09:18:15;;;;;;;11.43;6.53;;;0.00;98.00;;;;;;5080951;28;20037;-63
2021/01/17 09:20:42;;;;;;;13.10;8.45;;;0.00;98.00;;;;;;5079652;28;20024;-63
2021/01/17 09:23:10;;;;;;;15.10;10.10;;;0.00;98.00;;;;;;5078650;28;20082;-66
2021/01/17 09:25:37;;;;;;;12.65;7.55;;;0.00;98.00;;;;;;5080334;28;20030;-64
2021/01/17 09:28:03;;;;;;;20.85;12.77;;;0.10;98.00;;;;;;5071975;28;20028;-65
2021/01/17 09:30:28;;;;;;;9.07;6.03;;;0.00;98.00;;;;;;5078828;28;20035;-64
2021/01/17 09:32:56;;;;;;;14.32;8.90;;;0.00;98.00;;;;;;5083561;28;20074;-65
2021/01/17 09:35:22;;;;;;;11.88;8.38;;;0.00;98.00;;;;;;5082664;28;21456;-64
2021/01/17 09:37:56;;;;;;;8.63;5.65;;;0.00;98.00;;;;;;5075937;28;20028;-65
2021/01/17 09:40:22;;;;;;;10.07;6.72;;;0.10;98.00;;;;;;5079068;28;20073;-66
2021/01/17 09:42:48;;;;;;;13.45;7.50;;;0.00;98.00;;;;;;5079737;28;20017;-63
2021/01/17 09:45:14;;;;;;;12.82;8.38;;;0.10;98.00;;;;;;5082253;28;20059;-65
2021/01/17 09:47:43;;;;;;;10.00;6.57;;;0.20;98.00;;;;;;5077159;28;20039;-65
2021/01/17 09:50:10;;;;;;;8.50;6.20;;;0.30;98.00;;;;;;5080505;28;20028;-65
2021/01/17 09:52:41;;;;;;;7.88;5.13;;;0.30;98.00;;;;;;5078040;28;20326;-65
2021/01/17 09:55:09;;;;;;;8.07;5.43;;;0.20;98.00;;;;;;5078800;28;20028;-63
2021/01/17 09:57:39;;;;;;;7.63;5.18;;;0.20;98.00;;;;;;5078647;28;20318;-65
2021/01/17 10:00:13;;;;;;;9.82;6.80;;;0.10;98.00;;;;;;5080446;28;20417;-65
2021/01/17 10:02:40;;;;;;;8.63;5.90;;;0.20;98.00;;;;;;5069605;28;20043;-64
2021/01/17 10:05:06;;;;;;;8.63;6.32;;;0.40;98.00;;;;;;5069358;28;20035;-64
2021/01/17 10:07:32;;;;;;;13.20;9.57;;;0.40;98.00;;;;;;5072570;28;20060;-65
2021/01/17 10:09:58;;;;;;;8.40;5.68;;;0.40;98.00;;;;;;5074688;28;20381;-65
2021/01/17 10:12:24;;;;;;;7.55;5.72;;;0.30;98.00;;;;;;5073885;28;20040;-64
2021/01/17 10:14:50;;;;;;;9.10;7.18;;;0.30;98.00;;;;;;5076719;28;20025;-65
2021/01/17 10:17:17;;;;;;;18.60;10.95;;;0.30;98.00;;;;;;5076690;28;20045;-65
2021/01/17 10:19:46;;;;;;;9.90;6.32;;;0.40;98.00;;;;;;5080671;28;20033;-62
2021/01/17 10:22:14;;;;;;;9.27;5.22;;;0.30;98.00;;;;;;5076686;28;20055;-64
2021/01/17 10:24:40;;;;;;;8.68;5.28;;;0.30;98.00;;;;;;5074450;28;20024;-65
2021/01/17 10:27:08;;;;;;;6.93;4.60;;;0.30;98.00;;;;;;5074626;28;20032;-65
2021/01/17 10:29:40;;;;;;;10.25;6.15;;;0.20;98.00;;;;;;5073974;28;20333;-65
2021/01/17 10:32:10;;;;;;;9.02;5.38;;;0.20;98.00;;;;;;5067242;28;20024;-65
2021/01/17 10:34:48;;;;;;;8.25;5.15;;;0.10;98.00;;;;;;5068404;28;20418;-63
2021/01/17 10:37:18;;;;;;;6.80;4.55;;;0.20;98.00;;;;;;5073881;28;20036;-65
2021/01/17 10:39:47;;;;;;;7.45;5.38;;;0.30;98.00;;;;;;5076237;28;20077;-65
2021/01/17 10:42:19;;;;;;;9.43;7.05;;;0.40;98.00;;;;;;5081360;28;20111;-63
2021/01/17 10:44:56;;;;;;;11.82;6.78;;;0.50;98.00;;;;;;5076103;28;20029;-64
2021/01/17 10:47:38;;;;;;;9.70;6.97;;;0.60;98.00;;;;;;5071221;28;20032;-65
2021/01/17 10:50:09;;;;;;;12.73;7.47;;;0.70;98.00;;;;;;5074140;28;20452;-63
2021/01/17 10:52:42;;;;;;;12.40;8.73;;;0.70;98.00;;;;;;5079102;28;20028;-63
2021/01/17 10:55:13;;;;;;;10.85;7.75;;;0.70;98.00;;;;;;5076158;28;20024;-63
2021/01/17 10:57:41;;;;;;;6.80;4.65;;;0.70;98.00;;;;;;5074096;28;20021;-64
2021/01/17 11:00:08;;;;;;;10.88;6.45;;;0.80;98.00;;;;;;5074208;28;20028;-63
2021/01/17 11:02:34;;;;;;;12.05;7.32;;;0.80;98.00;;;;;;5073588;28;20024;-65
2021/01/17 11:05:00;;;;;;;9.15;5.82;;;0.80;98.00;;;;;;5072491;28;20199;-64
2021/01/17 11:07:28;;;;;;;9.18;6.13;;;0.80;98.00;;;;;;5071469;28;20037;-65
2021/01/17 11:09:57;;;;;;;7.18;4.78;;;0.70;98.00;;;;;;5075454;28;20336;-63
2021/01/17 11:12:33;;;;;;;8.57;5.93;;;0.90;98.00;;;;;;5076746;28;20029;-64
2021/01/17 11:15:17;;;;;;;11.40;7.07;;;1.00;98.00;;;;;;5083273;28;20016;-65
2021/01/17 11:17:54;;;;;;;13.35;6.55;;;1.30;98.00;;;;;;5079147;28;20323;-66
2021/01/17 11:20:25;;;;;;;10.00;6.90;;;1.40;98.00;;;;;;5075790;28;20111;-65
2021/01/17 11:22:53;;;;;;;9.95;5.93;;;1.60;98.00;;;;;;5073650;28;20024;-63
2021/01/17 11:25:20;;;;;;;8.52;5.38;;;1.50;98.00;;;;;;5081569;28;20313;-62
2021/01/17 11:27:56;;;;;;;8.77;5.60;;;1.30;98.00;;;;;;5073931;28;20863;-62
2021/01/17 11:30:26;;;;;;;6.72;4.53;;;1.00;98.00;;;;;;5078703;28;20021;-63
2021/01/17 11:32:52;;;;;;;9.48;5.53;;;0.90;98.00;;;;;;5076754;28;20024;-62
2021/01/17 11:35:29;;;;;;;6.50;4.53;;;0.80;98.00;;;;;;5075778;28;20112;-63
2021/01/17 11:37:57;;;;;;;21.00;8.93;;;0.70;98.00;;;;;;5080451;28;20403;-63
2021/01/17 11:40:23;;;;;;;11.10;6.30;;;0.60;98.00;;;;;;5079565;28;20024;-64
2021/01/17 11:42:49;;;;;;;10.65;6.90;;;0.70;98.00;;;;;;5074862;28;20074;-63
2021/01/17 11:45:19;;;;;;;8.52;5.28;;;0.60;98.00;;;;;;5075006;28;20077;-62
2021/01/17 11:47:45;;;;;;;10.85;7.35;;;0.60;98.00;;;;;;5078182;28;20074;-64
2021/01/17 11:50:26;;;;;;;19.33;11.73;;;0.60;98.00;;;;;;5077395;28;20056;-62
2021/01/17 11:53:02;;;;;;;14.50;7.90;;;0.60;98.00;;;;;;5072825;28;20035;-63
2021/01/17 11:55:29;;;;;;;10.30;6.68;;;0.70;98.00;;;;;;5085686;28;20021;-62
2021/01/17 11:58:15;;;;;;;12.85;7.80;;;0.60;98.00;;;;;;5088577;28;20024;-63
2021/01/17 12:00:51;;;;;;;13.00;8.43;;;0.60;98.00;;;;;;5077829;28;20020;-63
2021/01/17 12:03:35;;;;;;;10.77;6.95;;;0.60;98.00;;;;;;5079781;28;20472;-65
2021/01/17 12:06:10;;;;;;;11.30;7.60;;;0.60;98.00;;;;;;5089861;28;20537;-64
2021/01/17 12:08:55;;;;;;;15.10;8.30;;;0.40;98.00;;;;;;5080599;28;20221;-64
2021/01/17 12:11:39;;;;;;;37.35;26.20;;;0.60;98.00;;;;;;5084154;28;20035;-62
2021/01/17 12:14:22;;;;;;;10.18;6.72;;;0.60;98.00;;;;;;5078778;28;20079;-63
2021/01/17 12:16:55;;;;;;;19.80;7.38;;;0.60;98.00;;;;;;5087305;28;20048;-64
2021/01/17 12:19:22;;;;;;;9.55;6.03;;;0.60;98.00;;;;;;5081754;28;20094;-62
2021/01/17 12:21:50;;;;;;;11.73;6.43;;;0.60;98.00;;;;;;5087534;28;20120;-62
2021/01/17 12:24:16;;;;;;;12.38;8.45;;;0.70;98.00;;;;;;5086665;28;20115;-63
2021/01/17 12:26:43;;;;;;;11.52;7.28;;;0.70;98.00;;;;;;5089908;28;20317;-63
2021/01/17 12:29:10;;;;;;;14.80;9.48;;;0.70;98.00;;;;;;5091272;28;20148;-64
2021/01/17 12:31:36;;;;;;;12.85;7.82;;;0.80;98.00;;;;;;5090462;28;20036;-65
2021/01/17 12:34:03;;;;;;;11.68;7.38;;;0.80;98.00;;;;;;5096695;28;20032;-67
2021/01/17 12:36:30;;;;;;;11.85;6.22;;;0.80;98.00;;;;;;5082410;28;20039;-64
2021/01/17 12:38:58;;;;;;;8.10;5.63;;;0.80;98.00;;;;;;5075599;28;20104;-64
2021/01/17 12:41:34;;;;;;;9.27;5.97;;;0.70;98.00;;;;;;5081814;28;20347;-64
2021/01/17 12:44:01;;;;;;;11.10;6.97;;;0.80;98.00;;;;;;5082565;28;20032;-64
2021/01/17 12:46:27;;;;;;;11.40;7.90;;;0.80;98.00;;;;;;5084781;28;20052;-64
2021/01/17 12:48:54;;;;;;;12.35;8.73;;;0.80;98.00;;;;;;5076467;28;20025;-64
2021/01/17 12:51:19;;;;;;;8.50;4.82;;;0.90;98.00;;;;;;5083983;28;20032;-62
2021/01/17 12:53:46;;;;;;;9.65;6.88;;;0.90;98.00;;;;;;5085286;28;20428;-65